sensor_id;sensor_type;location;lat;lon;timestamp;temperature;humidity
21698;DHT22;11010;49.548;11.926;2023-04-06T00:01:04;4.50;99.90
21698;DHT22;11010;49.548;11.926;2023-04-06T00:03:31;4.40;99.90
21698;DHT22;11010;49.548;11.926;2023-04-06T00:05:59;4.40;99.90
21698;DHT22;11010;49.548;11.926;2023-04-06T00:08:26;4.50;99.90
21698;DHT22;11010;49.548;11.926;2023-04-06T00:10:54;4.10;99.90
21698;DHT22;11010;49.548;11.926;2023-04-06T00:13:21;4.10;99.90
21698;DHT22;11010;49.548;11.926;2023-04-06T00:15:48;4.10;99.90
21698;DHT22;11010;49.548;11.926;2023-04-06T00:18:16;4.10;99.90
21698;DHT22;11010;49.548;11.926;2023-04-06T00:20:43;3.90;99.90
21698;DHT22;11010;49.548;11.926;2023-04-06T00:23:10;4.20;99.90
21698;DHT22;11010;49.548;11.926;2023-04-06T00:25:37;4.10;99.90
21698;DHT22;11010;49.548;11.926;2023-04-06T00:28:04;4.20;99.90
21698;DHT22;11010;49.548;11.926;2023-04-06T00:30:31;4.20;99.90
21698;DHT22;11010;49.548;11.926;2023-04-06T00:32:58;4.10;99.90
21698;DHT22;11010;49.548;11.926;2023-04-06T00:35:25;4.00;99.90
21698;DHT22;11010;49.548;11.926;2023-04-06T00:37:52;4.00;99.90
21698;DHT22;11010;49.548;11.926;2023-04-06T00:40:20;3.90;99.90
21698;DHT22;11010;49.548;11.926;2023-04-06T00:42:47;3.90;99.90
21698;DHT22;11010;49.548;11.926;2023-04-06T00:45:14;4.00;99.90
21698;DHT22;11010;49.548;11.926;2023-04-06T00:47:41;4.00;99.90
21698;DHT22;11010;49.548;11.926;2023-04-06T00:50:09;3.80;99.90
21698;DHT22;11010;49.548;11.926;2023-04-06T00:52:36;3.70;99.90
21698;DHT22;11010;49.548;11.926;2023-04-06T00:55:06;3.70;99.90
21698;DHT22;11010;49.548;11.926;2023-04-06T00:57:38;3.60;99.90
21698;DHT22;11010;49.548;11.926;2023-04-06T01:00:06;3.40;99.90
21698;DHT22;11010;49.548;11.926;2023-04-06T01:02:34;3.50;99.90
21698;DHT22;11010;49.548;11.926;2023-04-06T01:05:02;3.60;99.90
21698;DHT22;11010;49.548;11.926;2023-04-06T01:07:37;3.80;99.90
21698;DHT22;11010;49.548;11.926;2023-04-06T01:14:27;3.80;99.90
21698;DHT22;11010;49.548;11.926;2023-04-06T01:16:59;3.90;99.90
21698;DHT22;11010;49.548;11.926;2023-04-06T01:19:32;3.90;99.90
21698;DHT22;11010;49.548;11.926;2023-04-06T01:22:00;3.90;99.90
21698;DHT22;11010;49.548;11.926;2023-04-06T01:24:30;3.60;99.90
21698;DHT22;11010;49.548;11.926;2023-04-06T01:27:16;3.70;99.90
21698;DHT22;11010;49.548;11.926;2023-04-06T01:29:46;3.50;99.90
21698;DHT22;11010;49.548;11.926;2023-04-06T01:32:21;3.40;99.90
21698;DHT22;11010;49.548;11.926;2023-04-06T01:34:51;3.50;99.90
21698;DHT22;11010;49.548;11.926;2023-04-06T01:37:20;3.80;99.90
21698;DHT22;11010;49.548;11.926;2023-04-06T01:39:47;3.90;99.90
21698;DHT22;11010;49.548;11.926;2023-04-06T01:42:25;3.90;99.90
21698;DHT22;11010;49.548;11.926;2023-04-06T01:44:53;3.70;99.90
21698;DHT22;11010;49.548;11.926;2023-04-06T01:47:20;3.70;99.90
21698;DHT22;11010;49.548;11.926;2023-04-06T01:49:48;3.80;99.90
21698;DHT22;11010;49.548;11.926;2023-04-06T01:52:19;3.80;99.90
21698;DHT22;11010;49.548;11.926;2023-04-06T01:54:51;3.80;99.90
21698;DHT22;11010;49.548;11.926;2023-04-06T01:57:39;3.80;99.90
21698;DHT22;11010;49.548;11.926;2023-04-06T02:00:15;3.80;99.90
21698;DHT22;11010;49.548;11.926;2023-04-06T02:02:49;3.80;99.90
21698;DHT22;11010;49.548;11.926;2023-04-06T02:05:22;3.80;99.90
21698;DHT22;11010;49.548;11.926;2023-04-06T02:07:53;3.80;99.90
21698;DHT22;11010;49.548;11.926;2023-04-06T02:10:29;3.70;99.90
21698;DHT22;11010;49.548;11.926;2023-04-06T02:13:01;3.70;99.90
21698;DHT22;11010;49.548;11.926;2023-04-06T02:15:28;3.30;99.90
21698;DHT22;11010;49.548;11.926;2023-04-06T02:17:58;3.50;99.90
21698;DHT22;11010;49.548;11.926;2023-04-06T02:20:25;3.60;99.90
21698;DHT22;11010;49.548;11.926;2023-04-06T02:22:53;3.60;99.90
21698;DHT22;11010;49.548;11.926;2023-04-06T02:25:20;3.50;99.90
21698;DHT22;11010;49.548;11.926;2023-04-06T02:27:48;3.70;99.90
21698;DHT22;11010;49.548;11.926;2023-04-06T02:30:15;3.70;99.90
21698;DHT22;11010;49.548;11.926;2023-04-06T02:32:43;3.70;99.90
21698;DHT22;11010;49.548;11.926;2023-04-06T02:35:12;3.60;99.90
21698;DHT22;11010;49.548;11.926;2023-04-06T02:37:40;3.70;99.90
21698;DHT22;11010;49.548;11.926;2023-04-06T02:40:08;3.60;99.90
21698;DHT22;11010;49.548;11.926;2023-04-06T02:42:35;3.60;99.90
21698;DHT22;11010;49.548;11.926;2023-04-06T02:45:04;3.60;99.90
21698;DHT22;11010;49.548;11.926;2023-04-06T02:47:37;3.60;99.90
21698;DHT22;11010;49.548;11.926;2023-04-06T02:50:05;3.40;99.90
21698;DHT22;11010;49.548;11.926;2023-04-06T02:52:37;3.30;99.90
21698;DHT22;11010;49.548;11.926;2023-04-06T02:55:05;3.30;99.90
21698;DHT22;11010;49.548;11.926;2023-04-06T02:57:34;3.40;99.90
21698;DHT22;11010;49.548;11.926;2023-04-06T03:00:02;3.40;99.90
21698;DHT22;11010;49.548;11.926;2023-04-06T03:02:37;3.40;99.90
21698;DHT22;11010;49.548;11.926;2023-04-06T03:05:09;3.30;99.90
21698;DHT22;11010;49.548;11.926;2023-04-06T03:07:41;3.40;99.90
21698;DHT22;11010;49.548;11.926;2023-04-06T03:10:14;3.30;99.90
21698;DHT22;11010;49.548;11.926;2023-04-06T03:23:32;3.40;99.90
21698;DHT22;11010;49.548;11.926;2023-04-06T03:26:02;3.30;99.90
21698;DHT22;11010;49.548;11.926;2023-04-06T03:28:29;3.50;99.90
21698;DHT22;11010;49.548;11.926;2023-04-06T03:31:02;3.40;99.90
21698;DHT22;11010;49.548;11.926;2023-04-06T03:33:44;3.20;99.90
21698;DHT22;11010;49.548;11.926;2023-04-06T03:36:32;3.30;99.90
21698;DHT22;11010;49.548;11.926;2023-04-06T03:39:00;3.30;99.90
21698;DHT22;11010;49.548;11.926;2023-04-06T03:41:27;3.30;99.90
21698;DHT22;11010;49.548;11.926;2023-04-06T03:44:03;3.30;99.90
21698;DHT22;11010;49.548;11.926;2023-04-06T03:46:30;3.40;99.90
21698;DHT22;11010;49.548;11.926;2023-04-06T03:48:58;3.40;99.90
21698;DHT22;11010;49.548;11.926;2023-04-06T03:51:27;3.10;99.90
21698;DHT22;11010;49.548;11.926;2023-04-06T03:53:54;3.20;99.90
21698;DHT22;11010;49.548;11.926;2023-04-06T03:56:21;3.40;99.90
21698;DHT22;11010;49.548;11.926;2023-04-06T03:58:48;3.30;99.90
21698;DHT22;11010;49.548;11.926;2023-04-06T04:01:20;3.10;99.90
21698;DHT22;11010;49.548;11.926;2023-04-06T04:03:47;3.10;99.90
21698;DHT22;11010;49.548;11.926;2023-04-06T04:06:17;3.00;99.90
21698;DHT22;11010;49.548;11.926;2023-04-06T04:08:45;3.00;99.90
21698;DHT22;11010;49.548;11.926;2023-04-06T04:11:12;3.00;99.90
21698;DHT22;11010;49.548;11.926;2023-04-06T04:13:39;3.10;99.90
21698;DHT22;11010;49.548;11.926;2023-04-06T04:16:07;3.00;99.90
21698;DHT22;11010;49.548;11.926;2023-04-06T04:18:35;3.00;99.90
21698;DHT22;11010;49.548;11.926;2023-04-06T04:21:05;2.80;99.90
21698;DHT22;11010;49.548;11.926;2023-04-06T04:23:32;2.80;99.90
21698;DHT22;11010;49.548;11.926;2023-04-06T04:26:03;2.80;99.90
21698;DHT22;11010;49.548;11.926;2023-04-06T04:28:30;2.80;99.90
21698;DHT22;11010;49.548;11.926;2023-04-06T04:30:57;2.80;99.90
21698;DHT22;11010;49.548;11.926;2023-04-06T04:33:24;2.80;99.90
21698;DHT22;11010;49.548;11.926;2023-04-06T04:35:55;2.80;99.90
21698;DHT22;11010;49.548;11.926;2023-04-06T04:38:25;2.90;99.90
21698;DHT22;11010;49.548;11.926;2023-04-06T04:40:54;2.70;99.90
21698;DHT22;11010;49.548;11.926;2023-04-06T04:43:22;2.70;99.90
21698;DHT22;11010;49.548;11.926;2023-04-06T04:45:49;2.70;99.90
21698;DHT22;11010;49.548;11.926;2023-04-06T04:48:26;2.60;99.90
21698;DHT22;11010;49.548;11.926;2023-04-06T04:51:00;2.80;99.90
21698;DHT22;11010;49.548;11.926;2023-04-06T04:53:38;2.80;99.90
21698;DHT22;11010;49.548;11.926;2023-04-06T04:56:15;2.80;99.90
21698;DHT22;11010;49.548;11.926;2023-04-06T04:58:44;2.80;99.90
21698;DHT22;11010;49.548;11.926;2023-04-06T05:01:12;2.80;99.90
21698;DHT22;11010;49.548;11.926;2023-04-06T05:03:40;2.40;99.90
21698;DHT22;11010;49.548;11.926;2023-04-06T05:06:12;2.50;99.90
21698;DHT22;11010;49.548;11.926;2023-04-06T05:08:41;2.60;99.90
21698;DHT22;11010;49.548;11.926;2023-04-06T05:11:09;2.30;99.90
21698;DHT22;11010;49.548;11.926;2023-04-06T05:13:42;2.50;99.90
21698;DHT22;11010;49.548;11.926;2023-04-06T05:16:17;2.40;99.90
21698;DHT22;11010;49.548;11.926;2023-04-06T05:18:44;2.50;99.90
21698;DHT22;11010;49.548;11.926;2023-04-06T05:21:12;2.60;99.90
21698;DHT22;11010;49.548;11.926;2023-04-06T05:23:55;2.60;99.90
21698;DHT22;11010;49.548;11.926;2023-04-06T05:26:23;2.70;99.90
21698;DHT22;11010;49.548;11.926;2023-04-06T05:28:55;2.70;99.90
21698;DHT22;11010;49.548;11.926;2023-04-06T05:31:24;2.60;99.90
21698;DHT22;11010;49.548;11.926;2023-04-06T05:33:52;2.50;99.90
21698;DHT22;11010;49.548;11.926;2023-04-06T05:36:32;2.60;99.90
21698;DHT22;11010;49.548;11.926;2023-04-06T05:39:05;2.60;99.90
21698;DHT22;11010;49.548;11.926;2023-04-06T05:41:41;2.60;99.90
21698;DHT22;11010;49.548;11.926;2023-04-06T05:44:10;2.60;99.90
21698;DHT22;11010;49.548;11.926;2023-04-06T05:46:39;2.50;99.90
21698;DHT22;11010;49.548;11.926;2023-04-06T05:49:11;2.60;99.90
21698;DHT22;11010;49.548;11.926;2023-04-06T05:51:39;2.60;99.90
21698;DHT22;11010;49.548;11.926;2023-04-06T05:54:07;2.40;99.90
21698;DHT22;11010;49.548;11.926;2023-04-06T05:56:34;2.60;99.90
21698;DHT22;11010;49.548;11.926;2023-04-06T05:59:02;2.50;99.90
21698;DHT22;11010;49.548;11.926;2023-04-06T06:01:30;2.50;99.90
21698;DHT22;11010;49.548;11.926;2023-04-06T06:04:00;2.70;99.90
21698;DHT22;11010;49.548;11.926;2023-04-06T06:06:30;2.80;99.90
21698;DHT22;11010;49.548;11.926;2023-04-06T06:09:12;2.80;99.90
21698;DHT22;11010;49.548;11.926;2023-04-06T06:11:45;2.90;99.90
21698;DHT22;11010;49.548;11.926;2023-04-06T06:14:15;2.80;99.90
21698;DHT22;11010;49.548;11.926;2023-04-06T06:16:43;2.70;99.90
21698;DHT22;11010;49.548;11.926;2023-04-06T06:19:12;2.90;99.90
21698;DHT22;11010;49.548;11.926;2023-04-06T06:21:40;2.90;99.90
21698;DHT22;11010;49.548;11.926;2023-04-06T06:24:07;2.90;99.90
21698;DHT22;11010;49.548;11.926;2023-04-06T06:26:34;2.90;99.90
21698;DHT22;11010;49.548;11.926;2023-04-06T06:29:06;2.80;99.90
21698;DHT22;11010;49.548;11.926;2023-04-06T06:31:36;2.70;99.90
21698;DHT22;11010;49.548;11.926;2023-04-06T06:34:03;2.80;99.90
21698;DHT22;11010;49.548;11.926;2023-04-06T06:36:32;2.80;99.90
21698;DHT22;11010;49.548;11.926;2023-04-06T06:39:00;3.00;99.90
21698;DHT22;11010;49.548;11.926;2023-04-06T06:41:30;3.00;99.90
21698;DHT22;11010;49.548;11.926;2023-04-06T06:43:57;2.90;99.90
21698;DHT22;11010;49.548;11.926;2023-04-06T06:46:24;2.90;99.90
21698;DHT22;11010;49.548;11.926;2023-04-06T06:48:52;3.00;99.90
21698;DHT22;11010;49.548;11.926;2023-04-06T06:51:19;3.00;99.90
21698;DHT22;11010;49.548;11.926;2023-04-06T06:53:49;3.10;99.90
21698;DHT22;11010;49.548;11.926;2023-04-06T06:56:16;3.10;99.90
21698;DHT22;11010;49.548;11.926;2023-04-06T06:58:43;3.10;99.90
21698;DHT22;11010;49.548;11.926;2023-04-06T07:01:10;3.20;99.90
21698;DHT22;11010;49.548;11.926;2023-04-06T07:03:38;3.10;99.90
21698;DHT22;11010;49.548;11.926;2023-04-06T07:06:05;3.10;99.90
21698;DHT22;11010;49.548;11.926;2023-04-06T07:08:32;3.20;99.90
21698;DHT22;11010;49.548;11.926;2023-04-06T07:10:59;3.30;99.90
21698;DHT22;11010;49.548;11.926;2023-04-06T07:13:27;3.10;99.90
21698;DHT22;11010;49.548;11.926;2023-04-06T07:15:57;3.10;99.90
21698;DHT22;11010;49.548;11.926;2023-04-06T07:18:25;3.10;99.90
21698;DHT22;11010;49.548;11.926;2023-04-06T07:20:52;3.20;99.90
21698;DHT22;11010;49.548;11.926;2023-04-06T07:23:19;3.20;99.90
21698;DHT22;11010;49.548;11.926;2023-04-06T07:25:47;3.30;99.90
21698;DHT22;11010;49.548;11.926;2023-04-06T07:28:14;3.30;99.90
21698;DHT22;11010;49.548;11.926;2023-04-06T07:30:41;3.30;99.90
21698;DHT22;11010;49.548;11.926;2023-04-06T07:33:10;3.30;99.90
21698;DHT22;11010;49.548;11.926;2023-04-06T07:35:38;3.30;99.90
21698;DHT22;11010;49.548;11.926;2023-04-06T07:38:06;3.20;99.90
21698;DHT22;11010;49.548;11.926;2023-04-06T07:40:35;3.30;99.90
21698;DHT22;11010;49.548;11.926;2023-04-06T07:43:02;3.40;99.90
21698;DHT22;11010;49.548;11.926;2023-04-06T07:45:30;3.40;99.90
21698;DHT22;11010;49.548;11.926;2023-04-06T07:48:00;3.50;99.90
21698;DHT22;11010;49.548;11.926;2023-04-06T07:50:27;3.50;99.90
21698;DHT22;11010;49.548;11.926;2023-04-06T07:52:55;3.60;99.90
21698;DHT22;11010;49.548;11.926;2023-04-06T07:55:23;3.80;99.90
21698;DHT22;11010;49.548;11.926;2023-04-06T07:57:50;3.80;99.90
21698;DHT22;11010;49.548;11.926;2023-04-06T08:00:17;3.90;99.90
21698;DHT22;11010;49.548;11.926;2023-04-06T08:02:44;3.90;99.90
21698;DHT22;11010;49.548;11.926;2023-04-06T08:05:12;4.00;99.90
21698;DHT22;11010;49.548;11.926;2023-04-06T08:07:39;4.00;99.90
21698;DHT22;11010;49.548;11.926;2023-04-06T08:10:06;4.10;99.90
21698;DHT22;11010;49.548;11.926;2023-04-06T08:12:34;4.20;99.90
21698;DHT22;11010;49.548;11.926;2023-04-06T08:15:01;4.40;99.90
21698;DHT22;11010;49.548;11.926;2023-04-06T08:17:29;4.40;99.90
21698;DHT22;11010;49.548;11.926;2023-04-06T08:19:58;4.50;99.90
21698;DHT22;11010;49.548;11.926;2023-04-06T08:22:25;4.50;99.90
21698;DHT22;11010;49.548;11.926;2023-04-06T08:24:52;4.50;99.90
21698;DHT22;11010;49.548;11.926;2023-04-06T08:27:19;4.40;99.90
21698;DHT22;11010;49.548;11.926;2023-04-06T08:29:47;4.60;99.90
21698;DHT22;11010;49.548;11.926;2023-04-06T08:32:14;4.70;99.90
21698;DHT22;11010;49.548;11.926;2023-04-06T08:34:41;4.70;99.90
21698;DHT22;11010;49.548;11.926;2023-04-06T08:37:08;4.90;99.90
21698;DHT22;11010;49.548;11.926;2023-04-06T08:39:35;5.10;99.90
21698;DHT22;11010;49.548;11.926;2023-04-06T08:42:02;5.20;99.90
21698;DHT22;11010;49.548;11.926;2023-04-06T08:44:31;5.40;99.90
21698;DHT22;11010;49.548;11.926;2023-04-06T08:46:59;5.50;99.90
21698;DHT22;11010;49.548;11.926;2023-04-06T08:49:27;5.60;99.90
21698;DHT22;11010;49.548;11.926;2023-04-06T08:51:55;5.50;99.90
21698;DHT22;11010;49.548;11.926;2023-04-06T08:54:24;5.70;99.90
21698;DHT22;11010;49.548;11.926;2023-04-06T08:56:52;5.80;99.90
21698;DHT22;11010;49.548;11.926;2023-04-06T08:59:19;5.90;99.90
21698;DHT22;11010;49.548;11.926;2023-04-06T09:01:47;5.80;99.90
21698;DHT22;11010;49.548;11.926;2023-04-06T09:04:14;5.90;99.90
21698;DHT22;11010;49.548;11.926;2023-04-06T09:06:43;6.00;99.90
21698;DHT22;11010;49.548;11.926;2023-04-06T09:09:10;6.10;99.90
21698;DHT22;11010;49.548;11.926;2023-04-06T09:11:47;6.20;99.90
21698;DHT22;11010;49.548;11.926;2023-04-06T09:14:15;6.20;99.90
21698;DHT22;11010;49.548;11.926;2023-04-06T09:16:44;6.40;99.90
21698;DHT22;11010;49.548;11.926;2023-04-06T09:19:12;6.60;99.90
21698;DHT22;11010;49.548;11.926;2023-04-06T09:21:40;6.40;99.90
21698;DHT22;11010;49.548;11.926;2023-04-06T09:24:07;6.60;99.90
21698;DHT22;11010;49.548;11.926;2023-04-06T09:26:46;6.80;99.90
21698;DHT22;11010;49.548;11.926;2023-04-06T09:29:24;7.00;99.90
21698;DHT22;11010;49.548;11.926;2023-04-06T09:32:05;7.40;99.90
21698;DHT22;11010;49.548;11.926;2023-04-06T09:34:34;7.80;99.90
21698;DHT22;11010;49.548;11.926;2023-04-06T09:37:12;7.50;99.90
21698;DHT22;11010;49.548;11.926;2023-04-06T09:39:39;7.80;99.90
21698;DHT22;11010;49.548;11.926;2023-04-06T09:42:07;7.80;99.90
21698;DHT22;11010;49.548;11.926;2023-04-06T09:44:34;7.30;99.90
21698;DHT22;11010;49.548;11.926;2023-04-06T09:47:03;7.20;99.90
21698;DHT22;11010;49.548;11.926;2023-04-06T09:49:33;7.40;99.90
21698;DHT22;11010;49.548;11.926;2023-04-06T09:52:03;7.00;99.90
21698;DHT22;11010;49.548;11.926;2023-04-06T09:54:31;6.70;99.90
21698;DHT22;11010;49.548;11.926;2023-04-06T09:57:07;6.40;99.90
21698;DHT22;11010;49.548;11.926;2023-04-06T10:00:06;6.50;99.90
21698;DHT22;11010;49.548;11.926;2023-04-06T10:05:15;6.70;99.90
21698;DHT22;11010;49.548;11.926;2023-04-06T10:07:45;6.70;99.90
21698;DHT22;11010;49.548;11.926;2023-04-06T10:10:28;7.30;99.90
21698;DHT22;11010;49.548;11.926;2023-04-06T10:12:56;7.80;99.90
21698;DHT22;11010;49.548;11.926;2023-04-06T10:15:23;8.20;99.90
21698;DHT22;11010;49.548;11.926;2023-04-06T10:17:51;8.70;99.90
21698;DHT22;11010;49.548;11.926;2023-04-06T10:25:30;9.20;99.90
21698;DHT22;11010;49.548;11.926;2023-04-06T10:30:28;9.90;99.90
21698;DHT22;11010;49.548;11.926;2023-04-06T10:32:56;10.10;99.90
21698;DHT22;11010;49.548;11.926;2023-04-06T10:35:23;9.80;99.90
21698;DHT22;11010;49.548;11.926;2023-04-06T10:38:00;9.80;99.90
21698;DHT22;11010;49.548;11.926;2023-04-06T10:40:28;10.40;99.90
21698;DHT22;11010;49.548;11.926;2023-04-06T10:43:06;10.50;99.90
21698;DHT22;11010;49.548;11.926;2023-04-06T10:45:33;11.20;99.90
21698;DHT22;11010;49.548;11.926;2023-04-06T10:48:12;10.90;99.90
21698;DHT22;11010;49.548;11.926;2023-04-06T10:50:41;11.20;99.90
21698;DHT22;11010;49.548;11.926;2023-04-06T10:53:08;10.70;99.90
21698;DHT22;11010;49.548;11.926;2023-04-06T10:55:39;10.50;99.90
21698;DHT22;11010;49.548;11.926;2023-04-06T10:58:07;10.30;99.90
21698;DHT22;11010;49.548;11.926;2023-04-06T11:00:35;11.10;99.90
21698;DHT22;11010;49.548;11.926;2023-04-06T11:03:16;11.10;99.90
21698;DHT22;11010;49.548;11.926;2023-04-06T11:05:47;11.00;99.90
21698;DHT22;11010;49.548;11.926;2023-04-06T11:08:31;10.70;99.90
21698;DHT22;11010;49.548;11.926;2023-04-06T11:11:25;11.00;99.90
21698;DHT22;11010;49.548;11.926;2023-04-06T11:13:55;10.70;99.90
21698;DHT22;11010;49.548;11.926;2023-04-06T11:16:24;12.00;99.90
21698;DHT22;11010;49.548;11.926;2023-04-06T11:26:43;11.20;99.90
21698;DHT22;11010;49.548;11.926;2023-04-06T11:29:12;11.50;99.90
21698;DHT22;11010;49.548;11.926;2023-04-06T11:31:47;12.30;99.90
21698;DHT22;11010;49.548;11.926;2023-04-06T11:34:18;12.10;99.80
21698;DHT22;11010;49.548;11.926;2023-04-06T11:36:47;10.70;99.90
21698;DHT22;11010;49.548;11.926;2023-04-06T11:39:20;11.00;99.90
21698;DHT22;11010;49.548;11.926;2023-04-06T11:41:48;11.60;99.90
21698;DHT22;11010;49.548;11.926;2023-04-06T11:44:28;12.40;99.90
21698;DHT22;11010;49.548;11.926;2023-04-06T11:46:57;11.90;99.20
21698;DHT22;11010;49.548;11.926;2023-04-06T11:49:31;10.80;99.60
21698;DHT22;11010;49.548;11.926;2023-04-06T11:52:00;10.50;99.90
21698;DHT22;11010;49.548;11.926;2023-04-06T11:54:34;10.60;99.90
21698;DHT22;11010;49.548;11.926;2023-04-06T11:57:05;11.70;99.50
21698;DHT22;11010;49.548;11.926;2023-04-06T11:59:33;11.50;98.30
21698;DHT22;11010;49.548;11.926;2023-04-06T12:02:04;11.70;98.00
21698;DHT22;11010;49.548;11.926;2023-04-06T12:04:31;12.70;97.90
21698;DHT22;11010;49.548;11.926;2023-04-06T12:06:59;13.20;98.40
21698;DHT22;11010;49.548;11.926;2023-04-06T12:09:26;12.70;96.90
21698;DHT22;11010;49.548;11.926;2023-04-06T12:11:53;12.70;98.00
21698;DHT22;11010;49.548;11.926;2023-04-06T12:14:20;11.90;97.80
21698;DHT22;11010;49.548;11.926;2023-04-06T12:16:48;12.10;98.00
21698;DHT22;11010;49.548;11.926;2023-04-06T12:19:15;12.80;99.20
21698;DHT22;11010;49.548;11.926;2023-04-06T12:21:42;11.80;98.30
21698;DHT22;11010;49.548;11.926;2023-04-06T12:24:09;12.30;98.80
21698;DHT22;11010;49.548;11.926;2023-04-06T12:26:37;13.60;98.70
21698;DHT22;11010;49.548;11.926;2023-04-06T12:29:04;13.40;96.90
21698;DHT22;11010;49.548;11.926;2023-04-06T12:31:37;14.10;96.80
21698;DHT22;11010;49.548;11.926;2023-04-06T12:34:07;14.60;96.10
21698;DHT22;11010;49.548;11.926;2023-04-06T12:36:36;15.00;97.20
21698;DHT22;11010;49.548;11.926;2023-04-06T12:39:04;14.20;96.00
21698;DHT22;11010;49.548;11.926;2023-04-06T12:41:31;13.20;96.60
21698;DHT22;11010;49.548;11.926;2023-04-06T12:43:58;12.30;96.70
21698;DHT22;11010;49.548;11.926;2023-04-06T12:46:29;12.60;97.20
21698;DHT22;11010;49.548;11.926;2023-04-06T12:48:57;13.00;96.30
21698;DHT22;11010;49.548;11.926;2023-04-06T12:51:29;13.20;96.20
21698;DHT22;11010;49.548;11.926;2023-04-06T12:53:59;13.30;94.90
21698;DHT22;11010;49.548;11.926;2023-04-06T12:56:26;13.60;95.20
21698;DHT22;11010;49.548;11.926;2023-04-06T12:58:53;14.30;94.40
21698;DHT22;11010;49.548;11.926;2023-04-06T13:01:21;14.30;93.70
21698;DHT22;11010;49.548;11.926;2023-04-06T13:03:49;14.80;95.40
21698;DHT22;11010;49.548;11.926;2023-04-06T13:06:16;15.10;95.70
21698;DHT22;11010;49.548;11.926;2023-04-06T13:08:43;15.40;94.20
21698;DHT22;11010;49.548;11.926;2023-04-06T13:11:10;15.50;96.80
21698;DHT22;11010;49.548;11.926;2023-04-06T13:13:38;15.10;95.10
21698;DHT22;11010;49.548;11.926;2023-04-06T13:16:08;14.60;94.20
21698;DHT22;11010;49.548;11.926;2023-04-06T13:18:36;15.10;94.00
21698;DHT22;11010;49.548;11.926;2023-04-06T13:21:06;14.80;93.30
21698;DHT22;11010;49.548;11.926;2023-04-06T13:23:34;13.70;92.30
21698;DHT22;11010;49.548;11.926;2023-04-06T13:26:06;14.40;94.00
21698;DHT22;11010;49.548;11.926;2023-04-06T13:28:35;14.90;93.40
21698;DHT22;11010;49.548;11.926;2023-04-06T13:31:05;14.50;93.90
21698;DHT22;11010;49.548;11.926;2023-04-06T13:33:32;14.50;93.20
21698;DHT22;11010;49.548;11.926;2023-04-06T13:35:59;14.70;93.10
21698;DHT22;11010;49.548;11.926;2023-04-06T13:38:27;14.40;92.80
21698;DHT22;11010;49.548;11.926;2023-04-06T13:40:54;14.30;93.60
21698;DHT22;11010;49.548;11.926;2023-04-06T13:43:21;14.60;92.30
21698;DHT22;11010;49.548;11.926;2023-04-06T13:45:53;14.80;94.20
21698;DHT22;11010;49.548;11.926;2023-04-06T13:48:22;15.80;99.90
21698;DHT22;11010;49.548;11.926;2023-04-06T13:50:49;15.20;99.10
21698;DHT22;11010;49.548;11.926;2023-04-06T13:53:16;14.90;96.90
21698;DHT22;11010;49.548;11.926;2023-04-06T13:55:51;15.00;99.90
21698;DHT22;11010;49.548;11.926;2023-04-06T13:58:18;14.80;99.50
21698;DHT22;11010;49.548;11.926;2023-04-06T14:00:45;15.40;99.90
21698;DHT22;11010;49.548;11.926;2023-04-06T14:03:13;14.70;95.00
21698;DHT22;11010;49.548;11.926;2023-04-06T14:05:40;14.30;99.00
21698;DHT22;11010;49.548;11.926;2023-04-06T14:08:07;15.20;99.50
21698;DHT22;11010;49.548;11.926;2023-04-06T14:10:41;14.90;98.70
21698;DHT22;11010;49.548;11.926;2023-04-06T14:13:09;15.10;95.10
21698;DHT22;11010;49.548;11.926;2023-04-06T14:15:36;15.10;94.70
21698;DHT22;11010;49.548;11.926;2023-04-06T14:18:03;14.60;93.30
21698;DHT22;11010;49.548;11.926;2023-04-06T14:20:33;14.60;94.60
21698;DHT22;11010;49.548;11.926;2023-04-06T14:23:01;14.40;95.20
21698;DHT22;11010;49.548;11.926;2023-04-06T14:25:29;14.80;94.70
21698;DHT22;11010;49.548;11.926;2023-04-06T14:27:58;14.60;93.10
21698;DHT22;11010;49.548;11.926;2023-04-06T14:30:25;13.80;95.20
21698;DHT22;11010;49.548;11.926;2023-04-06T14:32:52;14.70;93.70
21698;DHT22;11010;49.548;11.926;2023-04-06T14:35:19;14.50;93.50
21698;DHT22;11010;49.548;11.926;2023-04-06T14:37:46;14.50;92.80
21698;DHT22;11010;49.548;11.926;2023-04-06T14:40:13;14.90;94.10
21698;DHT22;11010;49.548;11.926;2023-04-06T14:42:41;14.30;92.80
21698;DHT22;11010;49.548;11.926;2023-04-06T14:45:08;14.00;92.50
21698;DHT22;11010;49.548;11.926;2023-04-06T14:47:35;14.70;94.90
21698;DHT22;11010;49.548;11.926;2023-04-06T14:50:02;15.10;92.60
21698;DHT22;11010;49.548;11.926;2023-04-06T14:52:29;15.70;92.00
21698;DHT22;11010;49.548;11.926;2023-04-06T14:54:58;15.70;91.40
21698;DHT22;11010;49.548;11.926;2023-04-06T14:57:25;15.40;92.00
21698;DHT22;11010;49.548;11.926;2023-04-06T14:59:53;15.70;94.00
21698;DHT22;11010;49.548;11.926;2023-04-06T15:02:21;15.50;91.70
21698;DHT22;11010;49.548;11.926;2023-04-06T15:04:48;15.80;92.30
21698;DHT22;11010;49.548;11.926;2023-04-06T15:07:15;16.10;91.90
21698;DHT22;11010;49.548;11.926;2023-04-06T15:09:43;16.20;91.00
21698;DHT22;11010;49.548;11.926;2023-04-06T15:12:10;16.10;90.90
21698;DHT22;11010;49.548;11.926;2023-04-06T15:14:37;15.80;90.90
21698;DHT22;11010;49.548;11.926;2023-04-06T15:17:04;15.50;91.00
21698;DHT22;11010;49.548;11.926;2023-04-06T15:19:32;15.70;92.60
21698;DHT22;11010;49.548;11.926;2023-04-06T15:21:59;14.80;91.40
21698;DHT22;11010;49.548;11.926;2023-04-06T15:24:26;14.90;91.10
21698;DHT22;11010;49.548;11.926;2023-04-06T15:26:53;14.70;90.80
21698;DHT22;11010;49.548;11.926;2023-04-06T15:29:21;15.00;91.30
21698;DHT22;11010;49.548;11.926;2023-04-06T15:31:48;14.50;92.10
21698;DHT22;11010;49.548;11.926;2023-04-06T15:34:15;13.70;91.20
21698;DHT22;11010;49.548;11.926;2023-04-06T15:36:42;14.00;92.70
21698;DHT22;11010;49.548;11.926;2023-04-06T15:39:10;14.60;93.00
21698;DHT22;11010;49.548;11.926;2023-04-06T15:41:37;14.50;92.70
21698;DHT22;11010;49.548;11.926;2023-04-06T15:44:04;15.00;92.20
21698;DHT22;11010;49.548;11.926;2023-04-06T15:46:31;14.70;92.00
21698;DHT22;11010;49.548;11.926;2023-04-06T15:48:58;15.00;94.10
21698;DHT22;11010;49.548;11.926;2023-04-06T15:51:25;14.70;91.10
21698;DHT22;11010;49.548;11.926;2023-04-06T15:53:53;14.30;92.40
21698;DHT22;11010;49.548;11.926;2023-04-06T15:56:20;14.40;93.90
21698;DHT22;11010;49.548;11.926;2023-04-06T15:58:47;14.20;92.60
21698;DHT22;11010;49.548;11.926;2023-04-06T16:01:16;14.50;91.70
21698;DHT22;11010;49.548;11.926;2023-04-06T16:03:44;14.30;90.60
21698;DHT22;11010;49.548;11.926;2023-04-06T16:06:12;14.10;91.60
21698;DHT22;11010;49.548;11.926;2023-04-06T16:08:39;13.90;92.40
21698;DHT22;11010;49.548;11.926;2023-04-06T16:11:07;14.20;91.70